Grete Maersk — OYCY2 — position and weather

sailwx.info

Track history (hours):
 
Tides and Currents Weather Stations Pressure Air Temp Water Temp Dewpoint Dewpoint Depression Visibility Wind Speed Wind Dir Waves Ship Positions

Grete Maersk

Last reported at 2016-Dec-02 14:06 UTC. Time now 2016-Dec-05 10:39 UTC.
Position N 38°13' W 124°22'.

MMSI: 218824136.

Date/timePositionNaut miles runAvg speedWind from/ knotsBaromVisibWave heightAir tempDewpointWater temp
2016-Dec-02 14:06N 38°13' W 124°22'813.6
2016-Dec-02 13:32N 38°12' W 124°13'1613.4
2016-Dec-02 12:22N 38°12' W 123°53'1113.6
2016-Dec-02 11:33N 38°11' W 123°39'1313.4
2016-Dec-02 10:33N 38°10' W 123°22'1413.6
2016-Dec-02 09:33N 38°00' W 123°10'1413.8
2016-Dec-02 08:33N 37°52' W 122°55'1312.8
2016-Dec-02 07:34N 37°46' W 122°41'1313.1
2016-Dec-02 06:33N 37°50' W 122°25'5 5.4
2016-Dec-02 05:33N 37°48' W 122°19'0 0.0
2016-Dec-02 04:32N 37°48' W 122°19'0 0.0
2016-Dec-02 03:32N 37°48' W 122°19'0 0.0
2016-Dec-02 02:32N 37°48' W 122°19'0 0.0
2016-Dec-02 01:32N 37°48' W 122°19'0 0.0
2016-Dec-02 00:32N 37°48' W 122°19'0 0.0
2016-Dec-01 23:32N 37°48' W 122°19'0 0.0
2016-Dec-01 22:32N 37°48' W 122°19'0 0.0
2016-Dec-01 21:32N 37°48' W 122°19'0 0.0
2016-Dec-01 20:32N 37°48' W 122°19'0 0.0
2016-Dec-01 19:32N 37°48' W 122°19'0 0.0
2016-Dec-01 18:32N 37°48' W 122°19'0 0.0
2016-Dec-01 17:32N 37°48' W 122°19'0 0.0
2016-Dec-01 16:32N 37°48' W 122°19'0 0.0
2016-Dec-01 15:32N 37°48' W 122°19'0 0.0
2016-Dec-01 14:32N 37°48' W 122°19'0 0.0
2016-Dec-01 13:33N 37°48' W 122°19'0 0.0
2016-Dec-01 12:29N 37°48' W 122°19'0 0.0
2016-Dec-01 11:32N 37°48' W 122°19'0 0.0
2016-Dec-01 10:32N 37°48' W 122°19'0 0.0
2016-Dec-01 09:32N 37°48' W 122°19'0 0.0
2016-Dec-01 08:29N 37°48' W 122°19'0 0.0
2016-Dec-01 07:33N 37°48' W 122°19'0 0.0
2016-Dec-01 06:32N 37°48' W 122°19'0 0.0
2016-Dec-01 05:32N 37°48' W 122°19'0 0.0
2016-Dec-01 04:32N 37°48' W 122°19'0 0.0
2016-Dec-01 03:33N 37°48' W 122°19'0 0.0
2016-Dec-01 02:32N 37°48' W 122°19'0 0.0
2016-Dec-01 01:32N 37°48' W 122°19'0 0.0
2016-Dec-01 00:32N 37°48' W 122°19'0 0.0
2016-Nov-30 23:32N 37°48' W 122°19'0 0.0
2016-Nov-30 22:32N 37°48' W 122°19'0 0.0
2016-Nov-30 21:32N 37°48' W 122°19'0 0.0
2016-Nov-30 20:32N 37°48' W 122°19'0 0.0
2016-Nov-30 19:32N 37°48' W 122°19'0 0.0
2016-Nov-30 18:29N 37°48' W 122°19'0 0.0
2016-Nov-30 17:32N 37°48' W 122°19'0 0.5
2016-Nov-30 16:33N 37°48' W 122°19'1 0.5
2016-Nov-30 15:33N 37°48' W 122°19'4 4.1
2016-Nov-30 14:33N 37°49' W 122°24'6 6.0
2016-Nov-30 13:34N 37°48' W 122°32'9 8.9
2016-Nov-30 12:33N 37°42' W 122°40'1413.5
2016-Nov-30 11:33N 37°29' W 122°40'1715.4
2016-Nov-30 10:27N 37°12' W 122°38'1615.3
2016-Nov-30 09:24N 36°57' W 122°31'1315.3
2016-Nov-30 08:33N 36°45' W 122°25'1515.3
2016-Nov-30 07:33N 36°30' W 122°19'1515.0
2016-Nov-30 06:33N 36°16' W 122°12'1514.7
2016-Nov-30 05:33N 36°04' W 122°02'1514.9
2016-Nov-30 04:33N 35°51' W 121°53'1514.8
2016-Nov-30 03:33N 35°38' W 121°44'1312.9
2016-Nov-30 02:34N 35°27' W 121°36'1615.9
2016-Nov-30 01:33N 35°13' W 121°26'6815.3
2016-Nov-29 21:06N 34°22' W 120°32'1217.2
2016-Nov-29 20:25N 34°19' W 120°18'1517.8
2016-Nov-29 19:33N 34°15' W 119°60'1817.6
2016-Nov-29 18:31N 34°10' W 119°39'1918.1
2016-Nov-29 17:29N 34°05' W 119°17'3417.5
2016-Nov-29 15:33N 33°49' W 118°42'1211.9
2016-Nov-29 14:34N 33°43' W 118°29'1211.6
2016-Nov-29 13:34N 33°38' W 118°16'5 5.2
2016-Nov-29 12:33N 33°44' W 118°16'1 0.0
2016-Nov-28 18:26N 33°44' W 118°15'0 0.0
2016-Nov-28 17:32N 33°44' W 118°15'0 0.0
2016-Nov-28 14:17N 33°44' W 118°15'2 2.6
2016-Nov-28 13:34N 33°43' W 118°13'2 2.1
2016-Nov-28 12:33N 33°45' W 118°14'0 0.0
2016-Nov-28 11:30N 33°45' W 118°14'0 0.0
2016-Nov-28 10:33N 33°45' W 118°14'0 0.0
2016-Nov-28 09:24N 33°45' W 118°14'0 0.0
2016-Nov-28 08:24N 33°45' W 118°14'0 0.0
2016-Nov-28 07:27N 33°45' W 118°14'0 0.0
2016-Nov-28 06:33N 33°45' W 118°14'0 0.0
2016-Nov-28 05:21N 33°45' W 118°14'0 0.0
2016-Nov-28 03:27N 33°45' W 118°14'0 0.0
2016-Nov-28 02:33N 33°45' W 118°14'0 0.0
2016-Nov-27 09:33N 33°45' W 118°14'0 0.0
2016-Nov-27 03:33N 33°45' W 118°14'0 0.0
2016-Nov-26 15:18N 33°45' W 118°14'0 0.0
2016-Nov-26 14:30N 33°45' W 118°14'0 0.0
2016-Nov-26 13:33N 33°45' W 118°14'0 0.0
2016-Nov-26 12:33N 33°45' W 118°14'0 0.0
2016-Nov-26 11:33N 33°45' W 118°14'0 0.0
2016-Nov-26 10:27N 33°45' W 118°14'0 0.0
2016-Nov-26 09:33N 33°45' W 118°14'0 0.0
2016-Nov-26 08:33N 33°45' W 118°14'0 0.0
2016-Nov-26 07:30N 33°45' W 118°14'0 0.0
2016-Nov-26 06:33N 33°45' W 118°14'0 0.0
2016-Nov-26 05:33N 33°45' W 118°14'0 0.0
2016-Nov-26 04:33N 33°45' W 118°14'0 0.0
2016-Nov-26 03:33N 33°45' W 118°14'0 0.0
2016-Nov-26 02:33N 33°45' W 118°14'0 0.0
2016-Nov-26 01:33N 33°45' W 118°14'0 0.0
2016-Nov-26 00:33N 33°45' W 118°14'0 0.0
2016-Nov-25 23:33N 33°45' W 118°14'0 0.0
2016-Nov-25 22:33N 33°45' W 118°14'0 0.0
2016-Nov-25 21:33N 33°45' W 118°14'0 0.0
2016-Nov-25 20:33N 33°45' W 118°14'0 0.0
2016-Nov-25 19:33N 33°45' W 118°14'0 0.0
2016-Nov-25 18:33N 33°45' W 118°14'0 0.0
2016-Nov-25 17:33N 33°45' W 118°14'0 0.0
2016-Nov-25 16:33N 33°45' W 118°14'0 0.0
2016-Nov-25 15:33N 33°45' W 118°14'0 0.0
2016-Nov-25 14:33N 33°45' W 118°14'0 0.0
2016-Nov-25 13:33N 33°45' W 118°14'6 5.6
2016-Nov-25 12:33N 33°40' W 118°11'9 9.3
2016-Nov-25 11:34N 33°37' W 118°21'1211.7
2016-Nov-25 10:33N 33°42' W 118°33'1212.4
2016-Nov-25 09:33N 33°48' W 118°46'1413.7
2016-Nov-25 08:33N 33°55' W 119°01'1311.6
2016-Nov-25 07:27N 34°01' W 119°14'1314.1
2016-Nov-25 06:33N 34°05' W 119°29'1715.3
2016-Nov-25 05:25N 34°10' W 119°49'1615.0
2016-Nov-25 04:22N 34°14' W 120°07'1214.2
2016-Nov-25 03:33N 34°17' W 120°21'1313.2
2016-Nov-25 02:33N 34°20' W 120°36'1414.0
2016-Nov-25 01:33N 34°24' W 120°53'1313.4
2016-Nov-25 00:33N 34°24' W 121°09'1914.7
2016-Nov-24 23:17N 34°24' W 121°32'1115.0
2016-Nov-24 22:33N 34°24' W 121°45'1515.1
2016-Nov-24 21:33N 34°24' W 122°03'1615.2
2016-Nov-24 20:29N 34°24' W 122°23'2612.6
2016-Nov-24 18:27N 34°23' W 122°54'1314.6
2016-Nov-24 17:33N 34°23' W 123°10'1515.0
2016-Nov-24 16:33N 34°23' W 123°28'  
Track history (hours):
 
Tides and Currents Weather Stations Pressure Air Temp Water Temp Dewpoint Dewpoint Depression Visibility Wind Speed Wind Dir Waves Ship Positions

Grete Maersk

Last reported at 2016-Dec-02 14:06 UTC. Time now 2016-Dec-05 10:39 UTC.
Position N 38°13' W 124°22'.

MMSI: 218824136.

Date/timePositionNaut miles runAvg speedWind from/ knotsBaromVisibWave heightAir tempDewpointWater temp
2016-Dec-02 14:06N 38°13' W 124°22'813.6
2016-Dec-02 13:32N 38°12' W 124°13'1613.4
2016-Dec-02 12:22N 38°12' W 123°53'1113.6
2016-Dec-02 11:33N 38°11' W 123°39'1313.4
2016-Dec-02 10:33N 38°10' W 123°22'1413.6
2016-Dec-02 09:33N 38°00' W 123°10'1413.8
2016-Dec-02 08:33N 37°52' W 122°55'1312.8
2016-Dec-02 07:34N 37°46' W 122°41'1313.1
2016-Dec-02 06:33N 37°50' W 122°25'5 5.4
2016-Dec-02 05:33N 37°48' W 122°19'0 0.0
2016-Dec-02 04:32N 37°48' W 122°19'0 0.0
2016-Dec-02 03:32N 37°48' W 122°19'0 0.0
2016-Dec-02 02:32N 37°48' W 122°19'0 0.0
2016-Dec-02 01:32N 37°48' W 122°19'0 0.0
2016-Dec-02 00:32N 37°48' W 122°19'0 0.0
2016-Dec-01 23:32N 37°48' W 122°19'0 0.0
2016-Dec-01 22:32N 37°48' W 122°19'0 0.0
2016-Dec-01 21:32N 37°48' W 122°19'0 0.0
2016-Dec-01 20:32N 37°48' W 122°19'0 0.0
2016-Dec-01 19:32N 37°48' W 122°19'0 0.0
2016-Dec-01 18:32N 37°48' W 122°19'0 0.0
2016-Dec-01 17:32N 37°48' W 122°19'0 0.0
2016-Dec-01 16:32N 37°48' W 122°19'0 0.0
2016-Dec-01 15:32N 37°48' W 122°19'0 0.0
2016-Dec-01 14:32N 37°48' W 122°19'0 0.0
2016-Dec-01 13:33N 37°48' W 122°19'0 0.0
2016-Dec-01 12:29N 37°48' W 122°19'0 0.0
2016-Dec-01 11:32N 37°48' W 122°19'0 0.0
2016-Dec-01 10:32N 37°48' W 122°19'0 0.0
2016-Dec-01 09:32N 37°48' W 122°19'0 0.0
2016-Dec-01 08:29N 37°48' W 122°19'0 0.0
2016-Dec-01 07:33N 37°48' W 122°19'0 0.0
2016-Dec-01 06:32N 37°48' W 122°19'0 0.0
2016-Dec-01 05:32N 37°48' W 122°19'0 0.0
2016-Dec-01 04:32N 37°48' W 122°19'0 0.0
2016-Dec-01 03:33N 37°48' W 122°19'0 0.0
2016-Dec-01 02:32N 37°48' W 122°19'0 0.0
2016-Dec-01 01:32N 37°48' W 122°19'0 0.0
2016-Dec-01 00:32N 37°48' W 122°19'0 0.0
2016-Nov-30 23:32N 37°48' W 122°19'0 0.0
2016-Nov-30 22:32N 37°48' W 122°19'0 0.0
2016-Nov-30 21:32N 37°48' W 122°19'0 0.0
2016-Nov-30 20:32N 37°48' W 122°19'0 0.0
2016-Nov-30 19:32N 37°48' W 122°19'0 0.0
2016-Nov-30 18:29N 37°48' W 122°19'0 0.0
2016-Nov-30 17:32N 37°48' W 122°19'0 0.5
2016-Nov-30 16:33N 37°48' W 122°19'1 0.5
2016-Nov-30 15:33N 37°48' W 122°19'4 4.1
2016-Nov-30 14:33N 37°49' W 122°24'6 6.0
2016-Nov-30 13:34N 37°48' W 122°32'9 8.9
2016-Nov-30 12:33N 37°42' W 122°40'1413.5
2016-Nov-30 11:33N 37°29' W 122°40'1715.4
2016-Nov-30 10:27N 37°12' W 122°38'1615.3
2016-Nov-30 09:24N 36°57' W 122°31'1315.3
2016-Nov-30 08:33N 36°45' W 122°25'1515.3
2016-Nov-30 07:33N 36°30' W 122°19'1515.0
2016-Nov-30 06:33N 36°16' W 122°12'1514.7
2016-Nov-30 05:33N 36°04' W 122°02'1514.9
2016-Nov-30 04:33N 35°51' W 121°53'1514.8
2016-Nov-30 03:33N 35°38' W 121°44'1312.9
2016-Nov-30 02:34N 35°27' W 121°36'1615.9
2016-Nov-30 01:33N 35°13' W 121°26'6815.3
2016-Nov-29 21:06N 34°22' W 120°32'1217.2
2016-Nov-29 20:25N 34°19' W 120°18'1517.8
2016-Nov-29 19:33N 34°15' W 119°60'1817.6
2016-Nov-29 18:31N 34°10' W 119°39'1918.1
2016-Nov-29 17:29N 34°05' W 119°17'3417.5
2016-Nov-29 15:33N 33°49' W 118°42'1211.9
2016-Nov-29 14:34N 33°43' W 118°29'1211.6
2016-Nov-29 13:34N 33°38' W 118°16'5 5.2
2016-Nov-29 12:33N 33°44' W 118°16'1 0.0
2016-Nov-28 18:26N 33°44' W 118°15'0 0.0
2016-Nov-28 17:32N 33°44' W 118°15'0 0.0
2016-Nov-28 14:17N 33°44' W 118°15'2 2.6
2016-Nov-28 13:34N 33°43' W 118°13'2 2.1
2016-Nov-28 12:33N 33°45' W 118°14'0 0.0
2016-Nov-28 11:30N 33°45' W 118°14'0 0.0
2016-Nov-28 10:33N 33°45' W 118°14'0 0.0
2016-Nov-28 09:24N 33°45' W 118°14'0 0.0
2016-Nov-28 08:24N 33°45' W 118°14'0 0.0
2016-Nov-28 07:27N 33°45' W 118°14'0 0.0
2016-Nov-28 06:33N 33°45' W 118°14'0 0.0
2016-Nov-28 05:21N 33°45' W 118°14'0 0.0
2016-Nov-28 03:27N 33°45' W 118°14'0 0.0
2016-Nov-28 02:33N 33°45' W 118°14'0 0.0
2016-Nov-27 09:33N 33°45' W 118°14'0 0.0
2016-Nov-27 03:33N 33°45' W 118°14'0 0.0
2016-Nov-26 15:18N 33°45' W 118°14'0 0.0
2016-Nov-26 14:30N 33°45' W 118°14'0 0.0
2016-Nov-26 13:33N 33°45' W 118°14'0 0.0
2016-Nov-26 12:33N 33°45' W 118°14'0 0.0
2016-Nov-26 11:33N 33°45' W 118°14'0 0.0
2016-Nov-26 10:27N 33°45' W 118°14'0 0.0
2016-Nov-26 09:33N 33°45' W 118°14'0 0.0
2016-Nov-26 08:33N 33°45' W 118°14'0 0.0
2016-Nov-26 07:30N 33°45' W 118°14'0 0.0
2016-Nov-26 06:33N 33°45' W 118°14'0 0.0
2016-Nov-26 05:33N 33°45' W 118°14'0 0.0
2016-Nov-26 04:33N 33°45' W 118°14'0 0.0
2016-Nov-26 03:33N 33°45' W 118°14'0 0.0
2016-Nov-26 02:33N 33°45' W 118°14'0 0.0
2016-Nov-26 01:33N 33°45' W 118°14'0 0.0
2016-Nov-26 00:33N 33°45' W 118°14'0 0.0
2016-Nov-25 23:33N 33°45' W 118°14'0 0.0
2016-Nov-25 22:33N 33°45' W 118°14'0 0.0
2016-Nov-25 21:33N 33°45' W 118°14'0 0.0
2016-Nov-25 20:33N 33°45' W 118°14'0 0.0
2016-Nov-25 19:33N 33°45' W 118°14'0 0.0
2016-Nov-25 18:33N 33°45' W 118°14'0 0.0
2016-Nov-25 17:33N 33°45' W 118°14'0 0.0
2016-Nov-25 16:33N 33°45' W 118°14'0 0.0
2016-Nov-25 15:33N 33°45' W 118°14'0 0.0
2016-Nov-25 14:33N 33°45' W 118°14'0 0.0
2016-Nov-25 13:33N 33°45' W 118°14'6 5.6
2016-Nov-25 12:33N 33°40' W 118°11'9 9.3
2016-Nov-25 11:34N 33°37' W 118°21'1211.7
2016-Nov-25 10:33N 33°42' W 118°33'1212.4
2016-Nov-25 09:33N 33°48' W 118°46'1413.7
2016-Nov-25 08:33N 33°55' W 119°01'1311.6
2016-Nov-25 07:27N 34°01' W 119°14'1314.1
2016-Nov-25 06:33N 34°05' W 119°29'1715.3
2016-Nov-25 05:25N 34°10' W 119°49'1615.0
2016-Nov-25 04:22N 34°14' W 120°07'1214.2
2016-Nov-25 03:33N 34°17' W 120°21'1313.2
2016-Nov-25 02:33N 34°20' W 120°36'1414.0
2016-Nov-25 01:33N 34°24' W 120°53'1313.4
2016-Nov-25 00:33N 34°24' W 121°09'1914.7
2016-Nov-24 23:17N 34°24' W 121°32'1115.0
2016-Nov-24 22:33N 34°24' W 121°45'1515.1
2016-Nov-24 21:33N 34°24' W 122°03'1615.2
2016-Nov-24 20:29N 34°24' W 122°23'2612.6
2016-Nov-24 18:27N 34°23' W 122°54'1314.6
2016-Nov-24 17:33N 34°23' W 123°10'1515.0
2016-Nov-24 16:33N 34°23' W 123°28'  

Dump ship's entire track history